createdAt,value
2019-04-14T00:01:07.262Z,13.07
2019-04-14T00:03:54.348Z,12.77
2019-04-14T00:06:24.406Z,12.40
2019-04-14T00:08:54.257Z,12.00
2019-04-14T00:11:23.430Z,13.70
2019-04-14T00:13:52.440Z,11.70
2019-04-14T00:16:21.179Z,13.67
2019-04-14T00:18:51.166Z,11.83
2019-04-14T00:21:20.033Z,10.90
2019-04-14T00:23:48.753Z,11.87
2019-04-14T00:26:35.579Z,11.00
2019-04-14T00:29:10.865Z,13.13
2019-04-14T00:31:41.140Z,13.73
2019-04-14T00:34:20.821Z,13.03
2019-04-14T00:37:07.759Z,12.63
2019-04-14T00:39:40.051Z,11.57
2019-04-14T00:42:34.211Z,12.70
2019-04-14T00:45:30.595Z,12.23
2019-04-14T00:48:02.358Z,12.00
2019-04-14T00:50:23.299Z,14.90
2019-04-14T00:52:52.297Z,12.77
2019-04-14T00:55:21.128Z,15.97
2019-04-14T00:57:50.876Z,12.33
2019-04-14T01:00:20.744Z,13.80
2019-04-14T01:02:51.602Z,13.50
2019-04-14T01:05:21.678Z,13.73
2019-04-14T01:07:50.565Z,10.67
2019-04-14T01:10:19.282Z,14.47
2019-04-14T01:12:48.001Z,14.23
2019-04-14T01:15:17.917Z,12.37
2019-04-14T01:17:46.705Z,12.87
2019-04-14T01:20:16.632Z,13.43
2019-04-14T01:22:46.593Z,13.67
2019-04-14T01:25:15.529Z,15.13
2019-04-14T01:27:45.062Z,13.80
2019-04-14T01:30:13.945Z,15.97
2019-04-14T01:32:43.636Z,13.90
2019-04-14T01:35:12.405Z,15.13
2019-04-14T01:37:41.898Z,13.73
2019-04-14T01:40:11.980Z,16.30
2019-04-14T01:42:41.988Z,14.90
2019-04-14T01:45:12.718Z,13.10
2019-04-14T01:47:42.065Z,11.47
2019-04-14T01:50:11.062Z,15.83
2019-04-14T01:52:56.775Z,15.20
2019-04-14T01:55:41.635Z,14.30
2019-04-14T01:58:16.398Z,17.20
2019-04-14T02:01:19.698Z,16.27
2019-04-14T02:03:48.425Z,16.67
2019-04-14T02:06:17.984Z,13.97
2019-04-14T02:08:47.923Z,14.47
2019-04-14T02:11:18.287Z,14.40
2019-04-14T02:13:48.473Z,15.63
2019-04-14T02:16:25.862Z,12.93
2019-04-14T02:18:50.661Z,14.23
2019-04-14T02:21:19.456Z,15.70
2019-04-14T02:23:49.688Z,14.67
2019-04-14T02:26:19.715Z,14.37
2019-04-14T02:28:48.593Z,15.43
2019-04-14T02:31:39.276Z,15.13
2019-04-14T02:34:19.216Z,15.80
2019-04-14T02:36:48.028Z,13.77
2019-04-14T02:41:56.769Z,15.33
2019-04-14T02:47:11.602Z,16.47
2019-04-14T02:49:14.656Z,16.67
2019-04-14T02:51:48.446Z,15.10
2019-04-14T02:59:22.718Z,15.77
2019-04-14T03:01:54.770Z,15.53
2019-04-14T03:04:18.830Z,18.47
2019-04-14T03:06:50.249Z,17.40
2019-04-14T03:09:34.715Z,17.83
2019-04-14T03:11:51.306Z,17.53
2019-04-14T03:14:25.830Z,15.77
2019-04-14T03:17:14.249Z,16.50
2019-04-14T03:20:05.543Z,16.03
2019-04-14T03:22:38.453Z,16.30
2019-04-14T03:25:00.546Z,16.50
2019-04-14T03:27:50.544Z,15.50
2019-04-14T03:36:05.943Z,16.60
2019-04-14T03:37:59.204Z,16.83
2019-04-14T03:40:35.935Z,18.77
2019-04-14T03:43:03.895Z,16.93
2019-04-14T03:45:46.843Z,16.83
2019-04-14T03:50:29.173Z,15.90
2019-04-14T03:53:13.239Z,15.80
2019-04-14T03:55:22.677Z,17.97
2019-04-14T03:57:37.565Z,17.37
2019-04-14T04:00:07.467Z,17.10
2019-04-14T04:02:36.350Z,18.67
2019-04-14T04:05:06.321Z,18.87
2019-04-14T04:07:36.420Z,16.70
2019-04-14T04:10:11.456Z,16.63
2019-04-14T04:12:40.181Z,16.43
2019-04-14T04:15:09.049Z,19.03
2019-04-14T04:17:45.148Z,17.40
2019-04-14T04:20:33.086Z,18.67
2019-04-14T04:23:11.734Z,17.57
2019-04-14T04:25:52.739Z,15.57
2019-04-14T04:29:00.434Z,15.67
2019-04-14T04:31:52.541Z,14.97
2019-04-14T04:34:59.842Z,19.43
2019-04-14T04:37:54.178Z,19.23
2019-04-14T04:40:29.058Z,17.90
2019-04-14T04:42:58.986Z,17.97
2019-04-14T04:45:27.845Z,17.93
2019-04-14T04:47:57.681Z,19.47
2019-04-14T04:50:26.508Z,17.53
2019-04-14T04:52:56.173Z,18.43
2019-04-14T04:55:26.268Z,16.30
2019-04-14T04:57:55.206Z,16.50
2019-04-14T05:00:24.442Z,17.03
2019-04-14T05:02:53.353Z,17.63
2019-04-14T05:05:58.191Z,17.43
2019-04-14T05:08:26.925Z,18.87
2019-04-14T05:11:01.465Z,18.63
2019-04-14T05:13:35.935Z,15.67
2019-04-14T05:16:04.801Z,16.93
2019-04-14T05:18:33.666Z,18.50
2019-04-14T05:21:02.406Z,20.50
2019-04-14T05:23:31.983Z,14.87
2019-04-14T05:26:02.638Z,15.83
2019-04-14T05:28:31.603Z,16.33
2019-04-14T05:31:01.289Z,15.37
2019-04-14T05:33:31.368Z,16.17
2019-04-14T05:36:00.261Z,17.63
2019-04-14T05:38:31.916Z,17.43
2019-04-14T05:41:00.427Z,18.03
2019-04-14T05:43:38.663Z,18.67
2019-04-14T05:45:59.837Z,19.07
2019-04-14T05:48:29.395Z,17.37
2019-04-14T05:50:58.373Z,21.00
2019-04-14T05:53:28.267Z,17.77
2019-04-14T05:55:57.339Z,18.83
2019-04-14T05:58:26.059Z,17.60
2019-04-14T06:00:55.815Z,19.67
2019-04-14T06:03:25.683Z,21.30
2019-04-14T06:05:54.633Z,20.80
2019-04-14T06:08:23.402Z,20.83
2019-04-14T06:10:52.173Z,21.27
2019-04-14T06:13:20.897Z,23.80
2019-04-14T06:15:49.623Z,19.17
2019-04-14T06:18:18.389Z,19.00
2019-04-14T06:20:47.129Z,21.17
2019-04-14T06:23:15.850Z,19.60
2019-04-14T06:25:44.566Z,25.63
2019-04-14T06:28:13.321Z,23.77
2019-04-14T06:31:01.721Z,24.30
2019-04-14T06:33:45.905Z,22.57
2019-04-14T06:36:36.965Z,22.50
2019-04-14T06:39:13.921Z,21.50
2019-04-14T06:41:42.643Z,19.33
2019-04-14T06:44:11.354Z,19.20
2019-04-14T06:46:40.069Z,22.13
2019-04-14T06:49:08.783Z,20.27
2019-04-14T06:51:37.655Z,22.20
2019-04-14T06:54:06.476Z,20.43
2019-04-14T06:56:35.201Z,18.60
2019-04-14T06:59:04.078Z,20.43
2019-04-14T07:01:32.805Z,19.87
2019-04-14T07:04:01.657Z,19.47
2019-04-14T07:06:30.392Z,19.90
2019-04-14T07:09:00.405Z,18.83
2019-04-14T07:11:30.690Z,17.23
2019-04-14T07:13:59.389Z,21.90
2019-04-14T07:16:29.937Z,21.57
2019-04-14T07:18:58.735Z,19.63
2019-04-14T07:21:27.671Z,17.77
2019-04-14T07:23:58.863Z,19.87
2019-04-14T07:26:27.602Z,16.63
2019-04-14T07:28:57.135Z,19.70
2019-04-14T07:31:41.939Z,19.07
2019-04-14T07:34:21.884Z,18.53
2019-04-14T07:37:12.268Z,18.40
2019-04-14T07:39:48.284Z,18.50
2019-04-14T07:42:45.149Z,19.80
2019-04-14T07:45:39.009Z,25.47
2019-04-14T07:48:12.375Z,23.07
2019-04-14T07:50:53.120Z,17.30
2019-04-14T07:53:53.192Z,18.03
2019-04-14T07:56:41.182Z,18.07
2019-04-14T07:59:20.442Z,20.40
2019-04-14T08:02:08.037Z,19.20
2019-04-14T08:04:40.890Z,18.77
2019-04-14T08:07:09.672Z,22.43
2019-04-14T08:09:38.439Z,17.67
2019-04-14T08:12:07.305Z,19.30
2019-04-14T08:14:36.041Z,19.27
2019-04-14T08:17:04.845Z,18.50
2019-04-14T08:19:33.682Z,21.47
2019-04-14T08:22:02.564Z,17.87
2019-04-14T08:24:31.307Z,13.77
2019-04-14T08:27:00.106Z,18.13
2019-04-14T08:29:28.861Z,16.27
2019-04-14T08:31:57.621Z,17.40
2019-04-14T08:34:26.363Z,18.53
2019-04-14T08:36:55.091Z,17.00
2019-04-14T08:39:23.826Z,20.23
2019-04-14T08:41:59.957Z,16.03
2019-04-14T08:44:46.182Z,16.03
2019-04-14T08:47:34.017Z,15.90
2019-04-14T08:50:21.685Z,16.93
2019-04-14T08:53:10.478Z,18.13
2019-04-14T08:56:05.407Z,18.93
2019-04-14T08:58:54.681Z,15.83
2019-04-14T09:01:42.514Z,17.60
2019-04-14T09:04:30.385Z,18.37
2019-04-14T09:07:21.604Z,14.83
2019-04-14T09:09:55.149Z,16.20
2019-04-14T09:12:25.938Z,16.07
2019-04-14T09:14:57.123Z,18.50
2019-04-14T09:17:26.273Z,19.07
2019-04-14T09:19:54.977Z,16.47
2019-04-14T09:22:23.826Z,17.70
2019-04-14T09:24:52.597Z,13.33
2019-04-14T09:27:21.319Z,17.40
2019-04-14T09:29:52.218Z,16.63
2019-04-14T09:32:20.921Z,15.90
2019-04-14T09:34:52.479Z,15.63
2019-04-14T09:37:21.223Z,16.80
2019-04-14T09:39:50.044Z,19.17
2019-04-14T09:42:18.805Z,15.50
2019-04-14T09:44:47.593Z,15.73
2019-04-14T09:47:16.339Z,16.47
2019-04-14T09:49:45.127Z,14.30
2019-04-14T09:52:13.890Z,18.17
2019-04-14T09:54:42.663Z,15.60
2019-04-14T09:57:11.371Z,15.73
2019-04-14T09:59:40.192Z,17.03
2019-04-14T10:02:09.003Z,17.30
2019-04-14T10:04:37.895Z,14.83
2019-04-14T10:07:06.727Z,15.40
2019-04-14T10:09:35.538Z,16.43
2019-04-14T10:12:04.481Z,14.17
2019-04-14T10:14:33.198Z,14.30
2019-04-14T10:17:01.986Z,17.57
2019-04-14T10:19:30.713Z,14.87
2019-04-14T10:21:59.538Z,14.57
2019-04-14T10:24:28.289Z,15.90
2019-04-14T10:26:57.030Z,14.20
2019-04-14T10:29:25.801Z,16.43
2019-04-14T10:31:54.705Z,16.23
2019-04-14T10:34:23.438Z,14.03
2019-04-14T10:36:52.270Z,16.13
2019-04-14T10:39:21.025Z,14.47
2019-04-14T10:41:49.993Z,13.23
2019-04-14T10:44:18.746Z,13.33
2019-04-14T10:46:47.462Z,13.17
2019-04-14T10:49:16.216Z,14.93
2019-04-14T10:51:44.939Z,14.50
2019-04-14T10:54:13.692Z,14.83
2019-04-14T10:56:42.480Z,14.23
2019-04-14T10:59:11.233Z,16.43
2019-04-14T11:01:40.008Z,14.50
2019-04-14T11:04:08.973Z,14.37
2019-04-14T11:06:49.233Z,15.07
2019-04-14T11:09:18.056Z,14.87
2019-04-14T11:11:46.836Z,11.93
2019-04-14T11:14:15.598Z,14.90
2019-04-14T11:16:47.239Z,14.87
2019-04-14T11:19:16.143Z,13.27
2019-04-14T11:21:45.041Z,12.37
2019-04-14T11:24:14.223Z,12.13
2019-04-14T11:26:43.009Z,16.00
2019-04-14T11:29:11.921Z,17.67
2019-04-14T11:32:15.299Z,15.37
2019-04-14T11:35:03.233Z,12.77
2019-04-14T11:37:50.018Z,10.23
2019-04-14T11:40:21.850Z,11.33
2019-04-14T11:42:52.543Z,14.90
2019-04-14T11:45:21.453Z,13.80
2019-04-14T11:47:50.595Z,10.53
2019-04-14T11:50:19.709Z,11.47
2019-04-14T11:52:48.620Z,12.40
2019-04-14T11:55:20.496Z,8.50
2019-04-14T11:57:49.658Z,10.40
2019-04-14T12:00:38.142Z,10.27
2019-04-14T12:03:20.205Z,12.77
2019-04-14T12:06:05.029Z,11.53
2019-04-14T12:08:50.705Z,10.17
2019-04-14T12:11:20.427Z,9.03
2019-04-14T12:13:49.565Z,12.73
2019-04-14T12:16:18.606Z,9.37
2019-04-14T12:18:47.379Z,10.70
2019-04-14T12:21:16.098Z,9.40
2019-04-14T12:23:44.813Z,9.50
2019-04-14T12:26:13.553Z,10.87
2019-04-14T12:28:42.692Z,9.60
2019-04-14T12:31:13.087Z,10.90
2019-04-14T12:33:42.169Z,10.13
2019-04-14T12:36:12.908Z,8.53
2019-04-14T12:38:41.809Z,9.57
2019-04-14T12:41:17.716Z,9.27
2019-04-14T12:44:11.077Z,8.10
2019-04-14T12:46:59.318Z,9.80
2019-04-14T12:49:32.444Z,10.77
2019-04-14T12:52:21.303Z,8.13
2019-04-14T12:54:48.622Z,9.37
2019-04-14T12:57:24.845Z,9.13
2019-04-14T12:59:53.567Z,8.10
2019-04-14T13:02:29.362Z,8.50
2019-04-14T13:04:58.250Z,7.70
2019-04-14T13:07:46.664Z,9.97
2019-04-14T13:10:15.571Z,7.20
2019-04-14T13:12:46.246Z,9.47
2019-04-14T13:15:15.042Z,9.47
2019-04-14T13:17:44.378Z,7.53
2019-04-14T13:20:13.386Z,8.93
2019-04-14T13:22:42.200Z,9.07
2019-04-14T13:25:11.203Z,8.47
2019-04-14T13:27:40.005Z,8.53
2019-04-14T13:30:11.314Z,11.23
2019-04-14T13:32:40.639Z,8.67
2019-04-14T13:35:09.988Z,8.80
2019-04-14T13:37:38.717Z,8.00
2019-04-14T13:40:08.993Z,9.77
2019-04-14T13:42:37.923Z,10.07
2019-04-14T13:45:07.502Z,7.53
2019-04-14T13:47:36.368Z,11.43
2019-04-14T13:50:05.845Z,7.97
2019-04-14T13:52:47.232Z,11.00
2019-04-14T13:55:18.195Z,9.37
2019-04-14T13:57:47.024Z,10.07
2019-04-14T14:00:16.522Z,10.43
2019-04-14T14:02:45.271Z,8.37
2019-04-14T14:05:14.340Z,12.33
2019-04-14T14:07:43.162Z,8.13
2019-04-14T14:10:13.554Z,10.47
2019-04-14T14:12:48.265Z,9.80
2019-04-14T14:15:29.963Z,10.03
2019-04-14T14:18:17.859Z,11.23
2019-04-14T14:20:55.808Z,11.33
2019-04-14T14:23:28.933Z,8.27
2019-04-14T14:26:04.466Z,9.43
2019-04-14T14:28:33.185Z,9.20
2019-04-14T14:31:01.986Z,11.10
2019-04-14T14:33:30.713Z,9.03
2019-04-14T14:35:59.466Z,9.43
2019-04-14T14:38:28.193Z,8.57
2019-04-14T14:40:58.654Z,9.77
2019-04-14T14:43:27.515Z,9.23
2019-04-14T14:46:18.465Z,8.40
2019-04-14T14:48:54.390Z,8.25
2019-04-14T14:51:42.225Z,9.73
2019-04-14T14:54:10.985Z,10.35
2019-04-14T14:56:39.789Z,9.55
2019-04-14T14:59:08.673Z,8.50
2019-04-14T15:01:37.409Z,9.63
2019-04-14T15:04:06.125Z,9.45
2019-04-14T15:06:35.285Z,8.47
2019-04-14T15:09:06.286Z,8.05
2019-04-14T15:11:35.207Z,9.48
2019-04-14T15:14:04.995Z,12.98
2019-04-14T15:16:33.781Z,8.18
2019-04-14T15:19:02.638Z,10.90
2019-04-14T15:21:31.523Z,9.05
2019-04-14T15:24:00.597Z,8.63
2019-04-14T15:26:29.433Z,9.40
2019-04-14T15:28:58.327Z,7.97
2019-04-14T15:31:27.140Z,8.20
2019-04-14T15:33:55.881Z,8.38
2019-04-14T15:36:24.663Z,8.28
2019-04-14T15:38:53.493Z,10.38
2019-04-14T15:41:22.259Z,8.88
2019-04-14T15:43:51.030Z,8.75
2019-04-14T15:46:19.794Z,9.88
2019-04-14T15:48:48.586Z,8.00
2019-04-14T15:51:17.345Z,8.73
2019-04-14T15:53:46.087Z,7.83
2019-04-14T15:56:23.589Z,8.30
2019-04-14T15:59:01.162Z,8.33
2019-04-14T16:01:43.552Z,8.95
2019-04-14T16:04:23.184Z,7.67
2019-04-14T16:07:16.667Z,7.58
2019-04-14T16:10:03.276Z,8.13
2019-04-14T16:12:51.194Z,9.43
2019-04-14T16:15:26.820Z,7.90
2019-04-14T16:18:01.149Z,8.35
2019-04-14T16:20:31.907Z,8.20
2019-04-14T16:23:00.784Z,8.93
2019-04-14T16:25:45.171Z,7.28
2019-04-14T16:28:28.318Z,8.53
2019-04-14T16:31:16.203Z,10.40
2019-04-14T16:34:02.539Z,9.87
2019-04-14T16:36:32.683Z,10.60
2019-04-14T16:39:01.585Z,9.00
2019-04-14T16:41:30.346Z,13.87
2019-04-14T16:43:59.188Z,10.17
2019-04-14T16:46:28.086Z,9.00
2019-04-14T16:48:56.939Z,9.77
2019-04-14T16:51:32.963Z,10.07
2019-04-14T16:54:06.650Z,10.90
2019-04-14T16:56:53.278Z,14.27
2019-04-14T16:59:22.025Z,8.67
2019-04-14T17:01:51.191Z,12.90
2019-04-14T17:04:19.973Z,10.17
2019-04-14T17:06:48.693Z,13.47
2019-04-14T17:09:17.420Z,10.77
2019-04-14T17:11:46.178Z,10.93
2019-04-14T17:14:23.503Z,10.57
2019-04-14T17:17:16.013Z,10.47
2019-04-14T17:19:57.034Z,11.73
2019-04-14T17:22:52.960Z,11.30
2019-04-14T17:25:32.551Z,10.77
2019-04-14T17:28:19.309Z,12.03
2019-04-14T17:30:58.759Z,11.73
2019-04-14T17:33:41.858Z,12.23
2019-04-14T17:36:28.570Z,12.13
2019-04-14T17:39:19.658Z,12.53
2019-04-14T17:41:56.692Z,10.57
2019-04-14T17:44:44.566Z,10.67
2019-04-14T17:47:31.181Z,12.17
2019-04-14T17:50:08.389Z,11.37
2019-04-14T17:52:39.830Z,12.47
2019-04-14T17:55:13.961Z,13.10
2019-04-14T17:57:52.715Z,10.00
2019-04-14T18:00:43.599Z,12.40
2019-04-14T18:03:30.731Z,12.70
2019-04-14T18:06:04.763Z,12.43
2019-04-14T18:08:43.653Z,13.27
2019-04-14T18:11:19.347Z,11.87
2019-04-14T18:14:13.438Z,15.23
2019-04-14T18:17:00.069Z,14.23
2019-04-14T18:19:35.669Z,14.03
2019-04-14T18:22:04.512Z,10.67
2019-04-14T18:24:42.292Z,11.60
2019-04-14T18:27:03.814Z,10.57
2019-04-14T18:29:51.739Z,10.53
2019-04-14T18:32:39.639Z,10.60
2019-04-14T18:35:20.085Z,12.50
2019-04-14T18:38:23.226Z,9.73
2019-04-14T18:40:55.982Z,11.20
2019-04-14T18:43:44.872Z,14.00
2019-04-14T18:46:24.996Z,10.83
2019-04-14T18:49:04.926Z,12.53
2019-04-14T18:51:43.476Z,12.03
2019-04-14T18:54:34.161Z,14.10
2019-04-14T18:57:20.374Z,13.43
2019-04-14T19:00:07.105Z,16.47
2019-04-14T19:02:35.925Z,15.17
2019-04-14T19:05:05.585Z,12.10
2019-04-14T19:07:34.321Z,13.33
2019-04-14T19:10:03.778Z,14.77
2019-04-14T19:12:40.675Z,16.20
2019-04-14T19:15:41.030Z,15.93
2019-04-14T19:18:31.441Z,15.30
2019-04-14T19:21:03.457Z,13.27
2019-04-14T19:23:32.229Z,12.10
2019-04-14T19:26:01.086Z,14.07
2019-04-14T19:28:29.937Z,15.33
2019-04-14T19:30:58.836Z,13.73
2019-04-14T19:33:27.576Z,12.30
2019-04-14T19:35:56.543Z,15.03
2019-04-14T19:38:25.373Z,13.30
2019-04-14T19:40:54.095Z,20.60
2019-04-14T19:43:24.327Z,13.43
2019-04-14T19:45:53.221Z,15.43
2019-04-14T19:48:22.009Z,16.70
2019-04-14T19:50:50.750Z,13.97
2019-04-14T19:53:19.482Z,15.93
2019-04-14T19:55:48.194Z,11.93
2019-04-14T19:58:17.149Z,10.47
2019-04-14T20:00:45.908Z,12.70
2019-04-14T20:03:14.695Z,13.83
2019-04-14T20:05:43.429Z,18.07
2019-04-14T20:08:12.241Z,12.20
2019-04-14T20:10:41.030Z,15.17
2019-04-14T20:13:09.766Z,14.80
2019-04-14T20:16:04.207Z,13.27
2019-04-14T20:18:44.566Z,16.50
2019-04-14T20:21:31.457Z,14.57
2019-04-14T20:24:11.253Z,13.17
2019-04-14T20:27:08.113Z,10.70
2019-04-14T20:29:39.211Z,14.87
2019-04-14T20:32:13.765Z,11.07
2019-04-14T20:34:42.837Z,15.80
2019-04-14T20:37:13.113Z,12.00
2019-04-14T20:39:41.981Z,10.93
2019-04-14T20:42:11.045Z,13.07
2019-04-14T20:44:39.787Z,12.00
2019-04-14T20:47:09.348Z,12.70
2019-04-14T20:49:38.948Z,10.77
2019-04-14T20:52:08.773Z,15.70
2019-04-14T20:54:37.521Z,12.17
2019-04-14T20:57:06.501Z,9.87
2019-04-14T20:59:35.254Z,12.57
2019-04-14T21:02:22.138Z,12.43
2019-04-14T21:04:58.578Z,11.40
2019-04-14T21:08:04.700Z,13.83
2019-04-14T21:10:40.045Z,13.90
2019-04-14T21:13:17.554Z,11.47
2019-04-14T21:15:50.124Z,12.13
2019-04-14T21:18:37.014Z,12.63
2019-04-14T21:21:23.225Z,11.80
2019-04-14T21:24:20.381Z,15.37
2019-04-14T21:27:12.958Z,12.03
2019-04-14T21:30:02.096Z,12.70
2019-04-14T21:32:35.303Z,11.23
2019-04-14T21:35:10.341Z,12.87
2019-04-14T21:37:44.517Z,10.60
2019-04-14T21:40:31.158Z,11.00
2019-04-14T21:43:03.133Z,14.13
2019-04-14T21:45:32.004Z,11.73
2019-04-14T21:48:00.836Z,11.03
2019-04-14T21:50:29.641Z,13.20
2019-04-14T21:52:58.446Z,10.20
2019-04-14T21:55:27.327Z,11.03
2019-04-14T21:58:05.914Z,12.07
2019-04-14T22:01:47.639Z,13.27
2019-04-14T22:04:38.586Z,11.93
2019-04-14T22:07:26.691Z,14.60
2019-04-14T22:09:59.410Z,12.77
2019-04-14T22:12:28.617Z,10.90
2019-04-14T22:14:57.364Z,12.67
2019-04-14T22:17:26.183Z,10.33
2019-04-14T22:19:54.943Z,11.20
2019-04-14T22:22:23.734Z,9.67
2019-04-14T22:24:52.575Z,11.60
2019-04-14T22:27:21.432Z,9.83
2019-04-14T22:29:50.252Z,12.83
2019-04-14T22:32:19.030Z,11.97
2019-04-14T22:34:48.026Z,11.00
2019-04-14T22:37:16.849Z,12.73
2019-04-14T22:39:45.605Z,11.17
2019-04-14T22:42:14.426Z,9.97
2019-04-14T22:44:43.147Z,12.43
2019-04-14T22:47:11.897Z,14.10
2019-04-14T22:49:40.646Z,12.90
2019-04-14T22:52:09.410Z,12.20
2019-04-14T22:54:38.153Z,16.90
2019-04-14T22:57:06.902Z,11.63
2019-04-14T22:59:35.621Z,10.17
2019-04-14T23:02:13.537Z,12.17
2019-04-14T23:05:01.411Z,14.13
2019-04-14T23:07:52.237Z,11.40
2019-04-14T23:10:37.761Z,13.67
2019-04-14T23:13:14.597Z,10.90
2019-04-14T23:16:01.013Z,11.67
2019-04-14T23:18:52.129Z,10.70
2019-04-14T23:21:32.370Z,10.30
2019-04-14T23:24:29.599Z,11.10
2019-04-14T23:26:58.554Z,12.80
2019-04-14T23:29:27.405Z,10.03
2019-04-14T23:31:56.174Z,12.07
2019-04-14T23:34:24.980Z,11.40
2019-04-14T23:36:53.720Z,8.93
2019-04-14T23:39:22.441Z,11.73
2019-04-14T23:41:51.257Z,10.40
2019-04-14T23:44:20.050Z,10.73
2019-04-14T23:46:48.797Z,11.83
2019-04-14T23:49:17.548Z,11.07
2019-04-14T23:51:46.371Z,10.90
2019-04-14T23:54:15.113Z,10.60
2019-04-14T23:56:43.958Z,10.00
2019-04-14T23:59:12.827Z,9.33
